Wetterdaten: Woche 08.12.14 - 14.12.14 (KW50)
Datum Zeit Temp. Aussen +5cm Feuchte Auss Luftdruck Regen Sonnenschein Regendauer Solar Windben
08.12.2014 00:00 4,1 C 2,2 C 96 % 1017,4 hPa 0,0 l/m 0,00 h 0,00 h 0 W/m 12,2 km/h (2 Bft)
08.12.2014 01:00 3,2 C 1,6 C 96 % 1017,7 hPa 0,0 l/m 0,00 h 0,00 h 0 W/m 11,7 km/h (2 Bft)
08.12.2014 02:00 2,6 C 1,1 C 96 % 1018,0 hPa 0,0 l/m 0,00 h 0,00 h 0 W/m 10,8 km/h (2 Bft)
08.12.2014 03:00 2,3 C 1,0 C 96 % 1018,0 hPa 0,2 l/m 0,00 h 0,00 h 0 W/m 12,5 km/h (3 Bft)
08.12.2014 04:00 2,1 C 0,6 C 96 % 1018,0 hPa 0,0 l/m 0,00 h 0,00 h 0 W/m 14,0 km/h (3 Bft)
08.12.2014 05:00 1,9 C 0,6 C 96 % 1017,9 hPa 0,0 l/m 0,00 h 0,00 h 0 W/m 17,0 km/h (3 Bft)
08.12.2014 06:00 1,6 C 0,2 C 96 % 1018,0 hPa 0,0 l/m 0,00 h 0,00 h 0 W/m 14,2 km/h (3 Bft)
08.12.2014 07:00 1,3 C -0,1 C 95 % 1017,9 hPa 0,0 l/m 0,00 h 0,00 h 0 W/m 11,8 km/h (2 Bft)
08.12.2014 08:00 1,2 C -0,1 C 95 % 1017,9 hPa 0,0 l/m 0,17 h 0,00 h 14 W/m 12,8 km/h (3 Bft)
08.12.2014 09:00 1,3 C 0,1 C 95 % 1018,0 hPa 0,0 l/m 0,63 h 0,00 h 62 W/m 13,8 km/h (3 Bft)
08.12.2014 10:00 2,1 C 0,9 C 94 % 1018,1 hPa 0,0 l/m 0,87 h 0,00 h 142 W/m 14,2 km/h (3 Bft)
08.12.2014 11:00 4,1 C 2,1 C 89 % 1017,8 hPa 0,0 l/m 1,00 h 0,00 h 212 W/m 13,9 km/h (3 Bft)
08.12.2014 12:00 5,8 C 3,7 C 82 % 1017,3 hPa 0,0 l/m 0,98 h 0,00 h 236 W/m 19,4 km/h (3 Bft)
08.12.2014 13:00 6,5 C 4,8 C 79 % 1016,9 hPa 0,0 l/m 0,90 h 0,00 h 171 W/m 17,7 km/h (3 Bft)
08.12.2014 14:00 6,0 C 4,4 C 81 % 1016,5 hPa 0,0 l/m 0,37 h 0,00 h 89 W/m 24,2 km/h (4 Bft)
08.12.2014 15:00 5,2 C 3,5 C 84 % 1016,4 hPa 0,4 l/m 0,00 h 0,40 h 21 W/m 17,5 km/h (3 Bft)
08.12.2014 16:00 4,0 C 2,2 C 90 % 1016,4 hPa 2,2 l/m 0,00 h 0,33 h 0 W/m 16,7 km/h (3 Bft)
08.12.2014 17:00 3,3 C 2,1 C 93 % 1016,5 hPa 0,2 l/m 0,00 h 0,07 h 0 W/m 12,5 km/h (3 Bft)
08.12.2014 18:00 3,2 C 2,0 C 95 % 1016,8 hPa 0,4 l/m 0,00 h 0,83 h 0 W/m 16,8 km/h (3 Bft)
08.12.2014 19:00 3,0 C 2,0 C 95 % 1017,2 hPa 0,2 l/m 0,00 h 0,68 h 0 W/m 9,5 km/h (2 Bft)
08.12.2014 20:00 3,1 C 2,0 C 96 % 1017,7 hPa 0,0 l/m 0,00 h 0,00 h 0 W/m 11,3 km/h (2 Bft)
08.12.2014 21:00 2,8 C 1,7 C 96 % 1018,2 hPa 0,0 l/m 0,00 h 0,00 h 0 W/m 13,2 km/h (3 Bft)
08.12.2014 22:00 2,7 C 1,7 C 96 % 1018,7 hPa 0,0 l/m 0,00 h 0,00 h 0 W/m 12,8 km/h (3 Bft)
08.12.2014 23:00 2,6 C 1,7 C 97 % 1019,3 hPa 0,0 l/m 0,00 h 0,00 h 0 W/m 12,3 km/h (3 Bft)
09.12.2014 00:00 2,6 C 1,6 C 97 % 1019,6 hPa 0,0 l/m 0,00 h 0,00 h 0 W/m 12,2 km/h (2 Bft)
09.12.2014 01:00 2,3 C 1,2 C 97 % 1020,2 hPa 0,0 l/m 0,00 h 0,00 h 0 W/m 12,6 km/h (3 Bft)
09.12.2014 02:00 2,1 C 0,9 C 97 % 1020,7 hPa 0,0 l/m 0,00 h 0,00 h 0 W/m 14,2 km/h (3 Bft)
09.12.2014 03:00 1,5 C 0,2 C 97 % 1021,2 hPa 0,0 l/m 0,00 h 0,00 h 0 W/m 8,5 km/h (2 Bft)
09.12.2014 04:00 1,5 C 0,9 C 97 % 1021,9 hPa 0,0 l/m 0,00 h 0,03 h 0 W/m 6,7 km/h (2 Bft)
09.12.2014 05:00 1,8 C 1,1 C 97 % 1022,4 hPa 0,4 l/m 0,00 h 0,85 h 0 W/m 6,4 km/h (2 Bft)
09.12.2014 06:00 1,9 C 1,1 C 97 % 1023,1 hPa 0,0 l/m 0,00 h 0,00 h 0 W/m 5,2 km/h (1 Bft)
09.12.2014 07:00 2,1 C 1,1 C 97 % 1024,0 hPa 0,0 l/m 0,00 h 0,00 h 0 W/m 4,6 km/h (1 Bft)
09.12.2014 08:00 2,2 C 1,3 C 97 % 1025,2 hPa 0,0 l/m 0,00 h 0,00 h 8 W/m 3,2 km/h (1 Bft)
09.12.2014 09:00 2,4 C 1,9 C 98 % 1026,2 hPa 0,0 l/m 0,00 h 0,00 h 27 W/m 3,6 km/h (1 Bft)
09.12.2014 10:00 2,7 C 2,2 C 98 % 1027,0 hPa 0,0 l/m 0,00 h 0,00 h 35 W/m 4,6 km/h (1 Bft)
09.12.2014 11:00 3,0 C 2,6 C 98 % 1027,4 hPa 0,0 l/m 0,00 h 0,00 h 52 W/m 8,1 km/h (2 Bft)
09.12.2014 12:00 3,4 C 2,9 C 98 % 1027,8 hPa 0,0 l/m 0,00 h 0,00 h 53 W/m 6,7 km/h (2 Bft)
09.12.2014 13:00 3,8 C 3,3 C 97 % 1027,9 hPa 0,0 l/m 0,00 h 0,00 h 67 W/m 8,4 km/h (2 Bft)
09.12.2014 14:00 3,8 C 3,0 C 95 % 1028,1 hPa 0,0 l/m 0,00 h 0,00 h 45 W/m 10,3 km/h (2 Bft)
09.12.2014 15:00 3,6 C 2,5 C 93 % 1028,4 hPa 0,0 l/m 0,00 h 0,00 h 17 W/m 10,7 km/h (2 Bft)
09.12.2014 16:00 3,3 C 1,9 C 93 % 1027,9 hPa 0,0 l/m 0,00 h 0,00 h 6 W/m 6,4 km/h (2 Bft)
09.12.2014 17:00 2,9 C 1,0 C 93 % 1027,6 hPa 0,0 l/m 0,00 h 0,00 h 0 W/m 6,9 km/h (2 Bft)
09.12.2014 18:00 2,3 C 0,9 C 94 % 1027,4 hPa 0,0 l/m 0,00 h 0,00 h 0 W/m 10,2 km/h (2 Bft)
09.12.2014 19:00 2,4 C 1,6 C 95 % 1026,7 hPa 0,0 l/m 0,00 h 0,00 h 0 W/m 13,9 km/h (3 Bft)
09.12.2014 20:00 2,7 C 2,0 C 96 % 1026,0 hPa 0,0 l/m 0,00 h 0,00 h 0 W/m 18,6 km/h (3 Bft)
09.12.2014 21:00 3,1 C 2,2 C 96 % 1025,5 hPa 0,0 l/m 0,00 h 0,00 h 0 W/m 17,2 km/h (3 Bft)
09.12.2014 22:00 3,5 C 2,3 C 95 % 1025,2 hPa 0,0 l/m 0,00 h 0,00 h 0 W/m 18,3 km/h (3 Bft)
09.12.2014 23:00 3,5 C 2,2 C 93 % 1024,1 hPa 0,0 l/m 0,00 h 0,00 h 0 W/m 19,5 km/h (3 Bft)
10.12.2014 00:00 3,6 C 2,6 C 91 % 1023,4 hPa 0,0 l/m 0,00 h 0,00 h 0 W/m 18,7 km/h (3 Bft)
10.12.2014 01:00 4,1 C 2,8 C 88 % 1022,3 hPa 0,0 l/m 0,00 h 0,00 h 0 W/m 23,6 km/h (4 Bft)
10.12.2014 02:00 4,2 C 2,8 C 85 % 1020,8 hPa 0,0 l/m 0,00 h 0,00 h 0 W/m 25,2 km/h (4 Bft)
10.12.2014 03:00 4,3 C 3,1 C 80 % 1019,5 hPa 0,0 l/m 0,00 h 0,00 h 0 W/m 30,5 km/h (5 Bft)
10.12.2014 04:00 4,8 C 3,5 C 77 % 1017,6 hPa 0,0 l/m 0,00 h 0,07 h 0 W/m 33,7 km/h (5 Bft)
10.12.2014 05:00 5,0 C 2,8 C 83 % 1016,3 hPa 0,6 l/m 0,00 h 0,80 h 0 W/m 26,8 km/h (4 Bft)
10.12.2014 06:00 4,7 C 3,0 C 91 % 1015,4 hPa 0,8 l/m 0,00 h 0,90 h 0 W/m 25,7 km/h (4 Bft)
10.12.2014 07:00 4,9 C 3,5 C 94 % 1014,9 hPa 0,8 l/m 0,00 h 0,67 h 0 W/m 28,7 km/h (4 Bft)
10.12.2014 08:00 5,4 C 4,0 C 96 % 1014,5 hPa 0,0 l/m 0,00 h 0,00 h 4 W/m 30,5 km/h (5 Bft)
10.12.2014 09:00 5,8 C 4,4 C 96 % 1014,9 hPa 0,4 l/m 0,00 h 0,43 h 6 W/m 33,7 km/h (5 Bft)
10.12.2014 10:00 5,8 C 4,4 C 96 % 1015,2 hPa 0,0 l/m 0,00 h 0,00 h 26 W/m 33,8 km/h (5 Bft)
10.12.2014 11:00 6,1 C 4,8 C 96 % 1015,3 hPa 0,0 l/m 0,00 h 0,07 h 70 W/m 28,5 km/h (4 Bft)
10.12.2014 12:00 7,1 C 5,4 C 95 % 1015,1 hPa 0,0 l/m 0,50 h 0,00 h 144 W/m 28,7 km/h (4 Bft)
10.12.2014 13:00 8,1 C 6,2 C 90 % 1014,9 hPa 0,0 l/m 0,70 h 0,00 h 158 W/m 27,8 km/h (4 Bft)
10.12.2014 14:00 8,4 C 6,0 C 83 % 1015,0 hPa 0,0 l/m 1,00 h 0,00 h 118 W/m 24,8 km/h (4 Bft)
10.12.2014 15:00 7,8 C 5,3 C 82 % 1015,1 hPa 0,0 l/m 0,00 h 0,00 h 40 W/m 19,3 km/h (3 Bft)
10.12.2014 16:00 6,8 C 4,2 C 83 % 1015,2 hPa 0,0 l/m 0,00 h 0,00 h 9 W/m 13,3 km/h (3 Bft)
10.12.2014 17:00 6,5 C 4,5 C 81 % 1015,3 hPa 0,0 l/m 0,00 h 0,00 h 0 W/m 19,4 km/h (3 Bft)
10.12.2014 18:00 5,8 C 3,3 C 81 % 1015,3 hPa 0,0 l/m 0,00 h 0,00 h 0 W/m 12,6 km/h (3 Bft)
10.12.2014 19:00 4,7 C 2,6 C 83 % 1015,1 hPa 0,0 l/m 0,00 h 0,00 h 0 W/m 12,2 km/h (2 Bft)
10.12.2014 20:00 4,3 C 2,6 C 84 % 1014,9 hPa 0,0 l/m 0,00 h 0,00 h 0 W/m 17,5 km/h (3 Bft)
10.12.2014 21:00 4,1 C 2,3 C 84 % 1014,8 hPa 0,0 l/m 0,00 h 0,00 h 0 W/m 15,5 km/h (3 Bft)
10.12.2014 22:00 3,9 C 2,2 C 85 % 1014,9 hPa 0,0 l/m 0,00 h 0,00 h 0 W/m 14,2 km/h (3 Bft)
10.12.2014 23:00 4,0 C 2,7 C 88 % 1014,7 hPa 0,0 l/m 0,00 h 0,00 h 0 W/m 17,2 km/h (3 Bft)
11.12.2014 00:00 4,2 C 2,8 C 89 % 1013,9 hPa 0,0 l/m 0,00 h 0,00 h 0 W/m 18,7 km/h (3 Bft)
11.12.2014 01:00 4,3 C 2,8 C 91 % 1013,2 hPa 0,0 l/m 0,00 h 0,00 h 0 W/m 19,2 km/h (3 Bft)
11.12.2014 02:00 4,4 C 3,1 C 92 % 1012,7 hPa 0,0 l/m 0,00 h 0,00 h 0 W/m 20,8 km/h (4 Bft)
11.12.2014 03:00 4,6 C 3,3 C 92 % 1011,7 hPa 0,0 l/m 0,00 h 0,00 h 0 W/m 25,5 km/h (4 Bft)
11.12.2014 04:00 4,9 C 3,6 C 92 % 1010,7 hPa 0,0 l/m 0,00 h 0,00 h 0 W/m 26,9 km/h (4 Bft)
11.12.2014 05:00 5,6 C 4,4 C 90 % 1010,0 hPa 0,0 l/m 0,00 h 0,00 h 0 W/m 33,9 km/h (5 Bft)
11.12.2014 06:00 5,9 C 4,4 C 88 % 1009,4 hPa 0,0 l/m 0,00 h 0,00 h 0 W/m 36,8 km/h (5 Bft)
11.12.2014 07:00 6,0 C 4,6 C 88 % 1008,7 hPa 0,0 l/m 0,00 h 0,00 h 0 W/m 37,7 km/h (5 Bft)
11.12.2014 08:00 6,3 C 5,0 C 87 % 1008,4 hPa 0,0 l/m 0,00 h 0,00 h 6 W/m 36,5 km/h (5 Bft)
11.12.2014 09:00 6,5 C 5,1 C 86 % 1008,2 hPa 0,0 l/m 0,00 h 0,00 h 20 W/m 38,0 km/h (5 Bft)
11.12.2014 10:00 6,7 C 5,5 C 87 % 1007,9 hPa 0,0 l/m 0,00 h 0,00 h 42 W/m 41,1 km/h (6 Bft)
11.12.2014 11:00 7,2 C 6,0 C 85 % 1007,3 hPa 0,0 l/m 0,00 h 0,03 h 77 W/m 42,9 km/h (6 Bft)
11.12.2014 12:00 7,5 C 6,5 C 85 % 1006,3 hPa 0,0 l/m 0,37 h 0,00 h 135 W/m 45,4 km/h (6 Bft)
11.12.2014 13:00 7,9 C 6,6 C 83 % 1006,1 hPa 0,2 l/m 0,33 h 0,20 h 103 W/m 49,2 km/h (6 Bft)
11.12.2014 14:00 4,4 C 2,1 C 89 % 1007,2 hPa 4,2 l/m 0,00 h 0,93 h 24 W/m 35,7 km/h (5 Bft)
11.12.2014 15:00 4,3 C 3,0 C 94 % 1007,3 hPa 0,2 l/m 0,00 h 0,50 h 15 W/m 32,9 km/h (5 Bft)
11.12.2014 16:00 4,8 C 2,9 C 88 % 1007,9 hPa 0,0 l/m 0,00 h 0,00 h 7 W/m 32,1 km/h (5 Bft)
11.12.2014 17:00 4,6 C 2,8 C 88 % 1008,4 hPa 0,0 l/m 0,00 h 0,00 h 0 W/m 32,4 km/h (5 Bft)
11.12.2014 18:00 4,4 C 2,8 C 90 % 1008,6 hPa 0,0 l/m 0,00 h 0,00 h 0 W/m 25,6 km/h (4 Bft)
11.12.2014 19:00 4,5 C 3,0 C 92 % 1008,7 hPa 0,0 l/m 0,00 h 0,00 h 0 W/m 27,3 km/h (4 Bft)
11.12.2014 20:00 5,2 C 3,8 C 91 % 1008,9 hPa 0,0 l/m 0,00 h 0,00 h 0 W/m 30,8 km/h (5 Bft)
11.12.2014 21:00 5,9 C 4,4 C 90 % 1008,9 hPa 0,0 l/m 0,00 h 0,00 h 0 W/m 32,0 km/h (5 Bft)
11.12.2014 22:00 6,3 C 4,8 C 89 % 1008,5 hPa 0,0 l/m 0,00 h 0,00 h 0 W/m 30,3 km/h (5 Bft)
11.12.2014 23:00 6,9 C 5,3 C 88 % 1008,2 hPa 0,0 l/m 0,00 h 0,17 h 0 W/m 34,7 km/h (5 Bft)
12.12.2014 00:00 6,8 C 5,0 C 91 % 1007,4 hPa 0,6 l/m 0,00 h 0,98 h 0 W/m 31,0 km/h (5 Bft)
12.12.2014 01:00 6,8 C 5,1 C 94 % 1006,3 hPa 0,4 l/m 0,00 h 0,57 h 0 W/m 34,0 km/h (5 Bft)
12.12.2014 02:00 7,2 C 5,6 C 95 % 1005,7 hPa 0,8 l/m 0,00 h 0,53 h 0 W/m 33,8 km/h (5 Bft)
12.12.2014 03:00 7,4 C 5,6 C 94 % 1004,6 hPa 0,2 l/m 0,00 h 0,23 h 0 W/m 37,1 km/h (5 Bft)
12.12.2014 04:00 7,9 C 5,6 C 89 % 1003,6 hPa 0,0 l/m 0,00 h 0,00 h 0 W/m 37,9 km/h (5 Bft)
12.12.2014 05:00 8,0 C 5,6 C 86 % 1002,3 hPa 0,0 l/m 0,00 h 0,03 h 0 W/m 39,3 km/h (6 Bft)
12.12.2014 06:00 8,2 C 6,0 C 86 % 1001,0 hPa 0,0 l/m 0,00 h 0,03 h 0 W/m 37,0 km/h (5 Bft)
12.12.2014 07:00 8,5 C 6,4 C 85 % 999,7 hPa 0,0 l/m 0,00 h 0,00 h 0 W/m 44,4 km/h (6 Bft)
12.12.2014 08:00 8,7 C 6,9 C 84 % 998,8 hPa 0,0 l/m 0,00 h 0,00 h 4 W/m 47,1 km/h (6 Bft)
12.12.2014 09:00 9,0 C 7,0 C 84 % 998,0 hPa 0,2 l/m 0,00 h 0,50 h 29 W/m 49,5 km/h (6 Bft)
12.12.2014 10:00 8,8 C 6,6 C 87 % 997,6 hPa 0,6 l/m 0,00 h 0,70 h 47 W/m 49,6 km/h (6 Bft)
12.12.2014 11:00 8,5 C 6,6 C 90 % 996,8 hPa 0,2 l/m 0,00 h 0,47 h 72 W/m 46,9 km/h (6 Bft)
12.12.2014 12:00 9,3 C 7,3 C 88 % 996,0 hPa 0,0 l/m 0,03 h 0,00 h 82 W/m 52,4 km/h (7 Bft)
12.12.2014 13:00 9,5 C 7,7 C 89 % 995,6 hPa 0,0 l/m 0,00 h 0,27 h 70 W/m 51,2 km/h (7 Bft)
12.12.2014 14:00 9,4 C 7,9 C 91 % 995,4 hPa 0,0 l/m 0,00 h 0,03 h 52 W/m 45,2 km/h (6 Bft)
12.12.2014 15:00 9,3 C 7,5 C 92 % 995,3 hPa 0,6 l/m 0,00 h 0,73 h 17 W/m 39,2 km/h (6 Bft)
12.12.2014 16:00 9,1 C 7,2 C 94 % 995,7 hPa 3,0 l/m 0,00 h 0,50 h 4 W/m 28,5 km/h (4 Bft)
12.12.2014 17:00 8,9 C 7,1 C 96 % 996,1 hPa 1,6 l/m 0,00 h 0,27 h 0 W/m 27,1 km/h (4 Bft)
12.12.2014 18:00 8,4 C 6,7 C 96 % 997,1 hPa 2,0 l/m 0,00 h 0,57 h 0 W/m 29,2 km/h (5 Bft)
12.12.2014 19:00 8,0 C 6,4 C 96 % 998,2 hPa 0,8 l/m 0,00 h 0,90 h 0 W/m 31,2 km/h (5 Bft)
12.12.2014 20:00 7,3 C 5,6 C 94 % 999,4 hPa 0,2 l/m 0,00 h 1,00 h 0 W/m 28,2 km/h (4 Bft)
12.12.2014 21:00 7,1 C 5,5 C 94 % 1000,8 hPa 1,4 l/m 0,00 h 0,97 h 0 W/m 23,8 km/h (4 Bft)
12.12.2014 22:00 6,7 C 4,9 C 95 % 1001,9 hPa 1,2 l/m 0,00 h 0,87 h 0 W/m 21,2 km/h (4 Bft)
12.12.2014 23:00 6,1 C 4,4 C 95 % 1003,0 hPa 0,4 l/m 0,00 h 0,53 h 0 W/m 12,6 km/h (3 Bft)
13.12.2014 00:00 5,8 C 4,4 C 95 % 1003,8 hPa 0,0 l/m 0,00 h 0,00 h 0 W/m 11,9 km/h (2 Bft)
13.12.2014 01:00 5,5 C 4,2 C 96 % 1004,4 hPa 0,0 l/m 0,00 h 0,00 h 0 W/m 9,5 km/h (2 Bft)
13.12.2014 02:00 5,2 C 3,9 C 96 % 1005,0 hPa 0,0 l/m 0,00 h 0,00 h 0 W/m 9,2 km/h (2 Bft)
13.12.2014 03:00 5,0 C 3,9 C 96 % 1005,8 hPa 0,0 l/m 0,00 h 0,00 h 0 W/m 6,7 km/h (2 Bft)
13.12.2014 04:00 4,8 C 3,3 C 97 % 1005,9 hPa 0,0 l/m 0,00 h 0,00 h 0 W/m 6,2 km/h (2 Bft)
13.12.2014 05:00 4,7 C 3,7 C 97 % 1006,5 hPa 0,0 l/m 0,00 h 0,00 h 0 W/m 6,9 km/h (2 Bft)
13.12.2014 06:00 4,7 C 3,9 C 97 % 1006,6 hPa 0,0 l/m 0,00 h 0,00 h 0 W/m 7,5 km/h (2 Bft)
13.12.2014 07:00 4,8 C 3,9 C 97 % 1007,1 hPa 0,0 l/m 0,00 h 0,00 h 0 W/m 6,0 km/h (2 Bft)
13.12.2014 08:00 4,7 C 3,5 C 97 % 1008,1 hPa 0,0 l/m 0,00 h 0,00 h 8 W/m 7,8 km/h (2 Bft)
13.12.2014 09:00 4,6 C 3,9 C 96 % 1008,9 hPa 0,0 l/m 0,00 h 0,00 h 21 W/m 11,2 km/h (2 Bft)
13.12.2014 10:00 4,7 C 3,9 C 95 % 1009,7 hPa 0,0 l/m 0,00 h 0,00 h 47 W/m 11,6 km/h (2 Bft)
13.12.2014 11:00 5,0 C 4,2 C 93 % 1010,2 hPa 0,0 l/m 0,00 h 0,00 h 64 W/m 13,4 km/h (3 Bft)
13.12.2014 12:00 5,0 C 4,2 C 91 % 1010,5 hPa 0,0 l/m 0,00 h 0,00 h 73 W/m 13,7 km/h (3 Bft)
13.12.2014 13:00 4,9 C 4,2 C 89 % 1010,7 hPa 0,0 l/m 0,00 h 0,00 h 79 W/m 15,5 km/h (3 Bft)
13.12.2014 14:00 4,8 C 3,9 C 89 % 1010,7 hPa 0,0 l/m 0,00 h 0,00 h 38 W/m 11,7 km/h (2 Bft)
13.12.2014 15:00 4,5 C 3,3 C 89 % 1011,2 hPa 0,0 l/m 0,00 h 0,00 h 21 W/m 13,2 km/h (3 Bft)
13.12.2014 16:00 4,1 C 3,0 C 90 % 1011,9 hPa 0,0 l/m 0,00 h 0,00 h 10 W/m 12,7 km/h (3 Bft)
13.12.2014 17:00 3,8 C 2,8 C 90 % 1012,5 hPa 0,0 l/m 0,00 h 0,00 h 0 W/m 9,8 km/h (2 Bft)
13.12.2014 18:00 3,5 C 2,4 C 91 % 1012,9 hPa 0,0 l/m 0,00 h 0,00 h 0 W/m 8,3 km/h (2 Bft)
13.12.2014 19:00 3,3 C 2,1 C 92 % 1013,3 hPa 0,0 l/m 0,00 h 0,00 h 0 W/m 3,7 km/h (1 Bft)
13.12.2014 20:00 2,9 C 1,6 C 93 % 1013,8 hPa 0,0 l/m 0,00 h 0,00 h 0 W/m 2,6 km/h (1 Bft)
13.12.2014 21:00 2,5 C 1,0 C 93 % 1013,9 hPa 0,0 l/m 0,00 h 0,00 h 0 W/m 2,5 km/h (1 Bft)
13.12.2014 22:00 2,0 C 0,6 C 93 % 1014,0 hPa 0,0 l/m 0,00 h 0,00 h 0 W/m 1,5 km/h (1 Bft)
13.12.2014 23:00 1,7 C 0,9 C 94 % 1014,3 hPa 0,0 l/m 0,00 h 0,00 h 0 W/m 1,0 km/h (0 Bft)
14.12.2014 00:00 1,9 C 1,4 C 95 % 1014,5 hPa 0,0 l/m 0,00 h 0,00 h 0 W/m 3,0 km/h (1 Bft)
14.12.2014 01:00 1,8 C -0,1 C 95 % 1014,4 hPa 0,0 l/m 0,00 h 0,00 h 0 W/m 4,6 km/h (1 Bft)
14.12.2014 02:00 0,8 C -1,3 C 95 % 1014,5 hPa 0,0 l/m 0,00 h 0,00 h 0 W/m 2,2 km/h (1 Bft)
14.12.2014 03:00 -0,3 C -2,1 C 94 % 1014,7 hPa 0,0 l/m 0,00 h 0,00 h 0 W/m 1,2 km/h (1 Bft)
14.12.2014 04:00 -0,9 C -2,2 C 95 % 1014,8 hPa 0,0 l/m 0,00 h 0,00 h 0 W/m 4,1 km/h (1 Bft)
14.12.2014 05:00 -1,1 C -2,2 C 95 % 1015,1 hPa 0,0 l/m 0,00 h 0,00 h 0 W/m 3,6 km/h (1 Bft)
14.12.2014 06:00 -1,3 C -2,2 C 95 % 1015,5 hPa 0,0 l/m 0,00 h 0,00 h 0 W/m 4,9 km/h (1 Bft)
14.12.2014 07:00 -1,1 C -1,5 C 96 % 1015,8 hPa 0,0 l/m 0,00 h 0,00 h 0 W/m 5,4 km/h (1 Bft)
14.12.2014 08:00 0,1 C -0,2 C 97 % 1016,2 hPa 0,0 l/m 0,00 h 0,00 h 6 W/m 6,8 km/h (2 Bft)
14.12.2014 09:00 1,2 C 0,9 C 97 % 1016,5 hPa 0,0 l/m 0,00 h 0,00 h 33 W/m 10,4 km/h (2 Bft)
14.12.2014 10:00 2,0 C 1,5 C 98 % 1016,8 hPa 0,0 l/m 0,77 h 0,00 h 136 W/m 10,4 km/h (2 Bft)
14.12.2014 11:00 3,6 C 2,9 C 98 % 1016,8 hPa 0,0 l/m 1,00 h 0,00 h 213 W/m 11,5 km/h (2 Bft)
14.12.2014 12:00 5,4 C 4,0 C 95 % 1016,4 hPa 0,0 l/m 0,97 h 0,00 h 226 W/m 13,4 km/h (3 Bft)
14.12.2014 13:00 6,4 C 4,4 C 82 % 1016,1 hPa 0,0 l/m 1,00 h 0,00 h 189 W/m 15,3 km/h (3 Bft)
14.12.2014 14:00 6,4 C 4,3 C 78 % 1015,7 hPa 0,0 l/m 0,93 h 0,00 h 112 W/m 14,4 km/h (3 Bft)
14.12.2014 15:00 5,6 C 3,6 C 78 % 1015,8 hPa 0,0 l/m 0,03 h 0,00 h 38 W/m 12,4 km/h (3 Bft)
14.12.2014 16:00 4,7 C 2,2 C 81 % 1015,8 hPa 0,0 l/m 0,13 h 0,00 h 10 W/m 8,9 km/h (2 Bft)
14.12.2014 17:00 3,5 C 0,5 C 84 % 1015,9 hPa 0,0 l/m 0,00 h 0,00 h 0 W/m 7,2 km/h (2 Bft)
14.12.2014 18:00 2,2 C -0,1 C 88 % 1015,9 hPa 0,0 l/m 0,00 h 0,00 h 0 W/m 9,2 km/h (2 Bft)
14.12.2014 19:00 1,5 C -0,6 C 91 % 1015,7 hPa 0,0 l/m 0,00 h 0,00 h 0 W/m 9,9 km/h (2 Bft)
14.12.2014 20:00 0,8 C -1,2 C 92 % 1015,5 hPa 0,0 l/m 0,00 h 0,00 h 0 W/m 8,5 km/h (2 Bft)
14.12.2014 21:00 0,2 C -1,2 C 92 % 1015,3 hPa 0,0 l/m 0,00 h 0,00 h 0 W/m 11,0 km/h (2 Bft)
14.12.2014 22:00 -0,2 C -1,7 C 93 % 1015,3 hPa 0,0 l/m 0,00 h 0,00 h 0 W/m 11,2 km/h (2 Bft)
14.12.2014 23:00 -0,4 C -1,3 C 93 % 1015,0 hPa 0,0 l/m 0,00 h 0,00 h 0 W/m 11,5 km/h (2 Bft)
Min-Datum _ 14.12.14 14.12.14 10.12.14 12.12.14 - - - - 09.12.14
_ Min-Zeit 05:54 03:12 04:30 15:46 - - - - 07:48
Minimum _ -1,3 C -2,2 C 76 % 995,1 hPa - - - - 0,0 km/h (0 Bft)
Max-Datum _ 12.12.14 12.12.14 09.12.14 09.12.14 11.12.14 08.12.14 08.12.14 11.12.14 12.12.14
_ Max-Zeit 12:38 14:44 09:08 15:10 14:06 08:40 15:36 12:20 12:46
Maximum _ 9,6 C 8,3 C 98 % 1028,6 hPa 4,2 l/m 0,03 h 0,03 h 289 W/m 75,3 km/h
SW (9 Bft)
Durchschnitt _ 4,4 C 3,0 C 92 % 1013,3 hPa #25,4 l/m #12:41 h #18:41 h 64 W/m 19,1 km/h (3 Bft)
© 2015 W. Hausmann